Air Quality Table

TIMESTAMP NO2 SO2 PM10 PM2.5 CO TEMP HUM AIRPRES WS WD NO
2022-08-15 17:00 17.96 µg/m3 2.61 µg/m3 N/A N/A N/A 31.45 °C 67.31 % 1,008.82 mbar 1.6 m/s 195.5 Deg 4.32 µg/m3
2022-08-15 09:00 18.53 µg/m3 3.82 µg/m3 N/A N/A N/A 27.83 °C 78.2 % 1,007.97 mbar 0.69 m/s 243.63 Deg 4.94 µg/m3
2022-08-15 01:00 34.04 µg/m3 3.78 µg/m3 N/A N/A N/A 29.25 °C 67.83 % 1,007.33 mbar 1.93 m/s 266.94 Deg 25.73 µg/m3
2022-08-14 17:00 12.11 µg/m3 4.13 µg/m3 N/A N/A N/A 30.86 °C 65.32 % 1,007.27 mbar 1.67 m/s 295.26 Deg 4.19 µg/m3
2022-08-14 09:00 32.8 µg/m3 6.03 µg/m3 N/A N/A N/A 27.71 °C 79.75 % 1,008.11 mbar 3.21 m/s 210.8 Deg 4.55 µg/m3
2022-08-14 01:00 20.18 µg/m3 5.2 µg/m3 N/A N/A N/A 28.15 °C 73.29 % 1,009.66 mbar 5.35 m/s 212.41 Deg 2.81 µg/m3
2022-08-13 17:00 20.31 µg/m3 2.87 µg/m3 N/A N/A N/A 29.22 °C 62.54 % 1,010.83 mbar 3.89 m/s 278.78 Deg 8.1 µg/m3
2022-08-13 09:00 26.58 µg/m3 2.89 µg/m3 N/A N/A N/A 26.59 °C 73.53 % 1,010.33 mbar 1.58 m/s 295.86 Deg 10.76 µg/m3
2022-08-13 01:00 18.68 µg/m3 2.78 µg/m3 N/A N/A N/A 27.78 °C 68.99 % 1,010.06 mbar 2.41 m/s 267.21 Deg 1.94 µg/m3
2022-08-12 17:00 13.6 µg/m3 2.61 µg/m3 N/A N/A N/A 28.45 °C 64.86 % 1,010.02 mbar 1.48 m/s 293.59 Deg 2.11 µg/m3
2022-08-12 09:00 32.4 µg/m3 2.81 µg/m3 N/A N/A N/A 25.5 °C 82.34 % 1,009.78 mbar 1.12 m/s 215.81 Deg 45.12 µg/m3
2022-08-12 01:00 20.71 µg/m3 2.55 µg/m3 N/A N/A N/A 27.66 °C 73.4 % 1,010.44 mbar 0.54 m/s 260.74 Deg 3.31 µg/m3
2022-08-11 17:00 16.81 µg/m3 2.28 µg/m3 N/A N/A N/A 28.03 °C 72.87 % 1,011.02 mbar 1.08 m/s 232.15 Deg 4.61 µg/m3
2022-08-11 09:00 31.53 µg/m3 2.71 µg/m3 N/A N/A N/A 27.29 °C 72.84 % 1,010.73 mbar 0.97 m/s 207 Deg 17.77 µg/m3
2022-08-11 01:00 19.64 µg/m3 2.57 µg/m3 N/A N/A N/A 28.82 °C 65.59 % 1,011.28 mbar 1.1 m/s 246.35 Deg 3.83 µg/m3
2022-08-10 17:00 12.65 µg/m3 2.09 µg/m3 N/A N/A N/A 30.29 °C 63.58 % 1,011.73 mbar 1.42 m/s 221.4 Deg 4.87 µg/m3
2022-08-10 09:00 36.97 µg/m3 2.21 µg/m3 N/A N/A N/A 27.57 °C 80.63 % 1,011.45 mbar 1.58 m/s 216.45 Deg 6.91 µg/m3
2022-08-10 01:00 16.53 µg/m3 2.43 µg/m3 N/A N/A N/A 28.83 °C 75.8 % 1,011.73 mbar 1.06 m/s 292.02 Deg 3.03 µg/m3
2022-08-09 17:00 13.13 µg/m3 2.63 µg/m3 N/A N/A N/A 30.5 °C 66.51 % 1,011.77 mbar 1.27 m/s 231.72 Deg 5.11 µg/m3
2022-08-09 09:00 44.16 µg/m3 3.39 µg/m3 N/A N/A N/A 27.8 °C 77.86 % 1,011.18 mbar 0.93 m/s 222.69 Deg 19.69 µg/m3

It is to be noted that the data is provisional and subject to quality assurance procedures. For validated data kindly refer your request to contact.air@era.org.mt